Time;durP1;ratioP1;P1;durP2;ratioP2;P2;SDS_P1;SDS_P2;PMS_P1;PMS_P2;Temp;Humidity;BMP_temperature;BMP_pressure;BME280_temperature;BME280_humidity;BME280_pressure;Samples;Min_cycle;Max_cycle;Signal;HPM_P1;HPM_P2
2021/03/12 00:00:21;;;;;;;43.90;41.72;;;25.30;99.90;;;;;;5075419;28;20027;-68
2021/03/12 00:02:49;;;;;;;42.03;39.83;;;25.20;99.90;;;;;;5075557;28;20020;-69
2021/03/12 00:05:17;;;;;;;42.95;40.75;;;25.00;99.90;;;;;;5075528;28;20268;-69
2021/03/12 00:07:44;;;;;;;47.95;45.45;;;25.00;99.90;;;;;;5075437;28;20028;-68
2021/03/12 00:10:18;;;;;;;50.50;47.90;;;25.00;99.90;;;;;;5075379;28;20027;-68
2021/03/12 00:12:46;;;;;;;45.22;43.03;;;24.90;99.90;;;;;;5075503;28;20025;-66
2021/03/12 00:15:16;;;;;;;46.50;44.20;;;25.20;99.90;;;;;;5075293;28;20024;-67
2021/03/12 00:17:43;;;;;;;;;;;25.20;99.90;;;;;;5074340;28;20428;-67
2021/03/12 00:20:20;;;;;;;46.78;44.38;;;25.10;99.90;;;;;;5075445;28;19940;-68
2021/03/12 00:22:49;;;;;;;46.08;43.60;;;25.20;99.90;;;;;;5075220;28;20074;-69
2021/03/12 00:25:20;;;;;;;46.20;44.10;;;25.10;99.90;;;;;;5073761;28;20111;-68
2021/03/12 00:27:47;;;;;;;42.50;40.28;;;25.20;99.90;;;;;;5075305;28;20020;-68
2021/03/12 00:30:15;;;;;;;42.55;40.38;;;25.00;99.90;;;;;;5075126;28;20032;-68
2021/03/12 00:32:42;;;;;;;47.88;45.38;;;25.10;99.90;;;;;;5074949;28;20056;-69
2021/03/12 00:35:10;;;;;;;46.42;43.92;;;24.90;99.90;;;;;;5075371;28;20028;-70
2021/03/12 00:37:38;;;;;;;42.63;40.33;;;24.90;99.90;;;;;;5074903;28;20432;-69
2021/03/12 00:40:17;;;;;;;41.45;39.35;;;25.00;99.90;;;;;;5074698;28;20071;-69
2021/03/12 00:42:45;;;;;;;41.90;39.60;;;25.10;99.90;;;;;;5074968;28;20485;-69
2021/03/12 00:45:15;;;;;;;44.90;42.60;;;25.00;99.90;;;;;;5074623;28;20035;-69
2021/03/12 00:47:44;;;;;;;46.40;44.20;;;24.90;99.90;;;;;;5074691;28;20035;-69
2021/03/12 00:50:13;;;;;;;46.22;43.70;;;25.10;99.90;;;;;;5074844;28;20024;-69
2021/03/12 00:52:41;;;;;;;43.47;41.30;;;24.90;99.90;;;;;;5073301;28;20089;-69
2021/03/12 00:55:10;;;;;;;45.35;42.95;;;25.20;99.90;;;;;;5074310;28;20520;-68
2021/03/12 00:57:37;;;;;;;41.55;39.65;;;25.70;99.90;;;;;;5074245;28;20017;-68
2021/03/12 01:00:06;;;;;;;40.33;38.22;;;26.00;99.90;;;;;;5074139;28;20384;-67
2021/03/12 01:02:34;;;;;;;37.97;36.17;;;26.30;99.90;;;;;;5074061;28;20013;-68
2021/03/12 01:05:01;;;;;;;36.55;34.80;;;26.70;99.90;;;;;;5074174;28;20375;-68
2021/03/12 01:07:28;;;;;;;38.60;36.70;;;26.90;99.90;;;;;;5073522;28;20103;-69
2021/03/12 01:09:56;;;;;;;37.83;35.92;;;26.80;99.90;;;;;;5074152;28;20105;-68
2021/03/12 01:12:23;;;;;;;36.13;34.40;;;26.80;99.90;;;;;;5074183;28;20029;-68
2021/03/12 01:14:50;;;;;;;33.50;31.90;;;27.00;99.90;;;;;;5073922;28;20450;-69
2021/03/12 01:17:18;;;;;;;30.63;29.33;;;27.60;99.90;;;;;;5074001;28;20028;-69
2021/03/12 01:19:45;;;;;;;31.55;30.05;;;27.60;99.90;;;;;;5073933;28;20258;-69
2021/03/12 01:22:13;;;;;;;28.63;27.23;;;27.60;99.90;;;;;;5074057;28;20477;-69
2021/03/12 01:24:40;;;;;;;27.85;26.55;;;27.20;99.90;;;;;;5073900;28;20024;-69
2021/03/12 01:27:09;;;;;;;28.00;26.45;;;27.20;99.90;;;;;;5073863;28;20074;-69
2021/03/12 01:29:37;;;;;;;25.85;24.75;;;27.20;99.90;;;;;;5073730;28;20032;-68
2021/03/12 01:32:04;;;;;;;23.80;22.80;;;27.60;99.90;;;;;;5072383;28;20037;-62
2021/03/12 01:34:32;;;;;;;27.60;26.23;;;27.50;99.90;;;;;;5073594;28;20024;-61
2021/03/12 01:37:00;;;;;;;27.02;25.83;;;27.10;99.90;;;;;;5073625;28;20046;-62
2021/03/12 01:39:27;;;;;;;24.63;23.63;;;26.80;99.90;;;;;;5072308;28;20060;-62
2021/03/12 01:41:54;;;;;;;24.50;23.50;;;26.70;99.90;;;;;;5073502;28;20044;-62
2021/03/12 01:44:22;;;;;;;25.70;24.40;;;26.80;99.90;;;;;;5073502;28;20416;-62
2021/03/12 01:46:49;;;;;;;26.75;25.55;;;26.80;99.90;;;;;;5073664;28;20027;-62
2021/03/12 01:49:16;;;;;;;27.85;26.55;;;26.80;99.90;;;;;;5073503;28;20381;-63
2021/03/12 01:51:44;;;;;;;25.45;24.25;;;27.10;99.90;;;;;;5073467;28;20017;-62
2021/03/12 01:54:11;;;;;;;30.17;28.23;;;27.00;99.90;;;;;;5073449;28;20028;-62
2021/03/12 01:56:39;;;;;;;26.00;24.55;;;27.00;99.90;;;;;;5073381;28;20107;-62
2021/03/12 01:59:06;;;;;;;27.10;25.90;;;27.00;99.90;;;;;;5073235;28;20645;-63
2021/03/12 02:01:33;;;;;;;26.27;25.15;;;27.00;99.90;;;;;;5073397;28;20524;-62
2021/03/12 02:04:01;;;;;;;25.30;23.85;;;27.00;99.90;;;;;;5073541;28;20030;-62
2021/03/12 02:06:28;;;;;;;24.45;23.33;;;27.10;99.90;;;;;;5073307;28;20490;-62
2021/03/12 02:08:56;;;;;;;25.55;24.45;;;27.00;99.90;;;;;;5073443;28;20020;-62
2021/03/12 02:11:23;;;;;;;25.67;24.58;;;26.70;99.90;;;;;;5073832;28;20025;-62
2021/03/12 02:14:04;;;;;;;25.33;24.17;;;27.00;99.90;;;;;;5073227;28;20035;-65
2021/03/12 02:17:09;;;;;;;23.15;22.15;;;27.10;99.90;;;;;;5073440;28;20024;-62
2021/03/12 02:19:54;;;;;;;24.08;22.98;;;27.50;99.90;;;;;;5073187;28;20025;-62
2021/03/12 02:22:24;;;;;;;24.23;23.23;;;27.20;99.90;;;;;;5073280;28;20469;-63
2021/03/12 02:24:58;;;;;;;21.80;20.77;;;27.10;99.90;;;;;;5073230;28;20481;-62
2021/03/12 02:27:26;;;;;;;25.73;24.52;;;27.30;99.90;;;;;;5073463;28;20033;-62
2021/03/12 02:29:56;;;;;;;25.85;24.75;;;27.40;99.90;;;;;;5073380;28;20100;-62
2021/03/12 02:32:43;;;;;;;25.83;24.52;;;27.80;99.90;;;;;;5073107;28;20020;-62
2021/03/12 02:35:17;;;;;;;22.27;21.15;;;28.60;99.90;;;;;;5073010;28;20060;-62
2021/03/12 02:37:46;;;;;;;19.23;18.33;;;29.30;99.90;;;;;;5073432;28;20016;-62
2021/03/12 02:40:14;;;;;;;16.17;15.38;;;29.80;99.90;;;;;;5073502;28;20099;-61
2021/03/12 02:42:44;;;;;;;13.52;12.73;;;29.90;99.90;;;;;;5073338;28;20109;-65
2021/03/12 02:45:13;;;;;;;13.15;12.45;;;30.10;99.90;;;;;;5072988;28;20077;-65
2021/03/12 02:47:41;;;;;;;11.23;10.63;;;30.10;99.90;;;;;;5073247;28;20082;-65
2021/03/12 02:50:11;;;;;;;9.77;9.30;;;29.70;99.90;;;;;;5072958;28;20104;-63
2021/03/12 02:52:40;;;;;;;9.93;9.43;;;29.10;99.90;;;;;;5072841;28;20024;-65
2021/03/12 02:55:08;;;;;;;10.65;10.10;;;28.70;99.90;;;;;;5072806;28;20024;-65
2021/03/12 02:57:36;;;;;;;10.55;9.80;;;28.50;99.90;;;;;;5072731;28;20501;-65
2021/03/12 03:00:07;;;;;;;8.88;8.30;;;28.40;99.90;;;;;;5073153;28;20013;-64
2021/03/12 03:02:35;;;;;;;10.60;10.00;;;28.20;99.90;;;;;;5072577;28;20029;-63
2021/03/12 03:05:04;;;;;;;10.68;10.10;;;27.80;99.90;;;;;;5072768;28;20428;-63
2021/03/12 03:07:32;;;;;;;10.07;9.57;;;27.60;99.90;;;;;;5072776;28;20027;-63
2021/03/12 03:10:00;;;;;;;9.43;8.82;;;27.40;99.90;;;;;;5072549;28;20036;-64
2021/03/12 03:12:29;;;;;;;12.05;11.35;;;27.10;99.90;;;;;;5072865;28;20368;-61
2021/03/12 03:14:59;;;;;;;12.50;11.80;;;26.90;99.90;;;;;;5072544;28;20137;-62
2021/03/12 03:17:29;;;;;;;12.77;11.98;;;26.70;99.90;;;;;;5073143;28;20060;-62
2021/03/12 03:19:57;;;;;;;12.00;11.40;;;27.00;99.90;;;;;;5072618;28;20035;-69
2021/03/12 03:41:13;;;;;;;13.70;12.50;;;27.30;99.90;;;;;;5111269;27;20401;-62
2021/03/12 03:43:44;;;;;;;13.30;12.30;;;26.40;99.90;;;;;;5111147;28;20035;-61
2021/03/12 03:46:12;;;;;;;14.38;13.13;;;26.30;99.90;;;;;;5110846;28;20016;-62
2021/03/12 03:48:40;;;;;;;16.95;15.73;;;26.20;99.90;;;;;;5110653;28;20062;-62
2021/03/12 03:51:09;;;;;;;16.13;15.02;;;26.10;99.90;;;;;;5092448;28;20112;-62
2021/03/12 03:53:39;;;;;;;15.35;14.38;;;26.10;99.90;;;;;;5110585;28;20099;-62
2021/03/12 03:56:08;;;;;;;18.20;17.02;;;26.20;99.90;;;;;;5110632;28;20100;-62
2021/03/12 03:58:37;;;;;;;18.80;17.55;;;26.30;99.90;;;;;;5110544;28;20051;-59
2021/03/12 04:01:06;;;;;;;18.83;17.55;;;26.30;99.90;;;;;;5110554;28;20403;-62
2021/03/12 04:03:34;;;;;;;17.10;16.08;;;26.40;99.90;;;;;;5092840;28;20459;-62
2021/03/12 04:06:04;;;;;;;18.35;17.05;;;26.50;99.90;;;;;;5110485;28;20051;-61
2021/03/12 04:08:33;;;;;;;20.42;19.23;;;26.60;99.90;;;;;;5110153;28;20115;-62
2021/03/12 04:11:00;;;;;;;19.45;18.35;;;26.50;99.90;;;;;;5110168;28;20132;-62
2021/03/12 04:13:29;;;;;;;20.83;19.45;;;26.60;99.90;;;;;;5110162;28;20031;-63
2021/03/12 04:15:57;;;;;;;21.50;20.38;;;26.60;99.90;;;;;;5110179;28;20098;-61
2021/03/12 04:18:24;;;;;;;21.63;20.50;;;26.50;99.90;;;;;;5110162;28;20492;-60
2021/03/12 04:20:52;;;;;;;23.42;22.02;;;26.30;99.90;;;;;;5110170;28;20047;-61
2021/03/12 04:23:20;;;;;;;23.30;22.00;;;26.30;99.90;;;;;;5109947;28;20104;-61
2021/03/12 04:25:49;;;;;;;20.05;18.85;;;26.50;99.90;;;;;;5110073;28;20047;-61
2021/03/12 04:28:16;;;;;;;18.23;17.02;;;26.60;99.90;;;;;;5109912;28;20023;-62
2021/03/12 04:30:44;;;;;;;19.45;18.15;;;26.80;99.90;;;;;;5102735;28;20020;-65
2021/03/12 04:33:13;;;;;;;15.90;14.90;;;27.00;99.90;;;;;;5110132;28;20024;-67
2021/03/12 04:35:40;;;;;;;15.00;13.80;;;27.10;99.90;;;;;;5108520;28;20024;-67
2021/03/12 04:38:08;;;;;;;12.15;11.27;;;27.00;99.90;;;;;;5109876;28;20020;-67
2021/03/12 04:40:35;;;;;;;13.10;12.15;;;27.10;99.90;;;;;;5103771;28;20061;-68
2021/03/12 04:43:04;;;;;;;14.10;13.10;;;26.90;99.90;;;;;;5094840;28;20105;-67
2021/03/12 04:45:32;;;;;;;12.05;10.98;;;26.90;99.90;;;;;;5096071;28;20024;-68
2021/03/12 04:48:00;;;;;;;12.77;11.18;;;27.00;99.90;;;;;;5095984;28;20456;-68
2021/03/12 04:50:29;;;;;;;13.38;12.07;;;26.90;99.90;;;;;;5095819;28;20357;-66
2021/03/12 04:52:57;;;;;;;13.85;12.95;;;26.90;99.90;;;;;;5095723;28;20095;-66
2021/03/12 04:55:25;;;;;;;13.75;12.73;;;26.90;99.90;;;;;;5095568;28;20023;-65
2021/03/12 04:57:54;;;;;;;24.58;22.65;;;26.70;99.90;;;;;;5094307;28;20016;-63
2021/03/12 05:00:22;;;;;;;19.42;18.35;;;26.60;99.90;;;;;;5095707;28;20020;-66
2021/03/12 05:02:50;;;;;;;18.58;17.48;;;26.50;99.90;;;;;;5095755;28;20024;-67
2021/03/12 05:05:18;;;;;;;19.25;18.23;;;26.40;99.90;;;;;;5095974;28;20383;-67
2021/03/12 05:07:46;;;;;;;21.85;20.58;;;26.20;99.90;;;;;;5095709;28;20046;-67
2021/03/12 05:10:13;;;;;;;26.10;24.48;;;26.20;99.90;;;;;;5095691;28;20468;-67
2021/03/12 05:12:41;;;;;;;30.95;29.30;;;26.20;99.90;;;;;;5094185;28;20021;-68
2021/03/12 05:15:09;;;;;;;33.78;31.98;;;25.90;99.90;;;;;;5095530;28;20048;-68
2021/03/12 05:17:36;;;;;;;38.13;36.17;;;25.80;99.90;;;;;;5094181;28;20070;-67
2021/03/12 05:20:04;;;;;;;36.80;34.70;;;25.70;99.90;;;;;;5095403;28;20361;-67
2021/03/12 05:22:32;;;;;;;42.78;39.92;;;25.70;99.90;;;;;;5095355;28;20387;-68
2021/03/12 05:24:59;;;;;;;43.50;40.83;;;25.60;99.90;;;;;;5095337;28;20095;-67
2021/03/12 05:27:26;;;;;;;48.70;45.92;;;25.40;99.90;;;;;;5093909;28;20028;-68
2021/03/12 05:29:53;;;;;;;50.65;48.08;;;25.30;99.90;;;;;;5095593;28;20032;-67
2021/03/12 05:32:21;;;;;;;50.85;48.13;;;25.30;99.90;;;;;;5095157;28;20024;-67
2021/03/12 05:34:48;;;;;;;54.75;51.65;;;25.20;99.90;;;;;;5095176;28;20020;-68
2021/03/12 05:37:15;;;;;;;52.97;49.70;;;25.10;99.90;;;;;;5095032;28;20012;-68
2021/03/12 05:39:43;;;;;;;57.67;54.35;;;25.20;99.90;;;;;;5095087;28;20059;-68
2021/03/12 05:42:10;;;;;;;55.90;52.47;;;25.20;99.90;;;;;;5095015;28;20392;-68
2021/03/12 05:44:38;;;;;;;58.42;54.92;;;25.20;99.90;;;;;;5094974;28;20433;-67
2021/03/12 05:47:07;;;;;;;60.17;57.08;;;25.20;99.90;;;;;;5094884;28;20026;-68
2021/03/12 05:49:35;;;;;;;56.60;53.30;;;25.30;99.90;;;;;;5094903;28;20510;-67
2021/03/12 05:52:03;;;;;;;57.25;53.92;;;25.40;99.90;;;;;;5093862;28;20357;-68
2021/03/12 05:54:31;;;;;;;58.83;55.30;;;25.30;99.90;;;;;;5094776;28;20467;-68
2021/03/12 05:56:58;;;;;;;57.65;53.83;;;25.50;99.90;;;;;;5094671;28;20471;-67
2021/03/12 05:59:26;;;;;;;54.63;51.35;;;25.70;99.90;;;;;;5094753;28;20422;-67
2021/03/12 06:01:54;;;;;;;53.67;50.38;;;26.00;99.90;;;;;;5094509;28;20047;-67
2021/03/12 06:04:21;;;;;;;50.28;47.38;;;26.30;99.90;;;;;;5094403;28;20506;-67
2021/03/12 06:06:48;;;;;;;49.85;46.95;;;26.50;99.90;;;;;;5094737;28;20062;-68
2021/03/12 06:09:16;;;;;;;48.67;45.88;;;26.80;99.90;;;;;;5092797;28;20388;-67
2021/03/12 06:11:44;;;;;;;45.72;43.03;;;27.00;99.90;;;;;;5094347;28;20020;-67
2021/03/12 06:14:11;;;;;;;45.15;42.38;;;27.20;99.90;;;;;;5092960;28;20020;-67
2021/03/12 06:16:41;;;;;;;41.03;38.47;;;27.40;99.90;;;;;;5094199;28;20360;-67
2021/03/12 06:19:17;;;;;;;38.53;36.03;;;27.30;99.90;;;;;;5092873;28;20495;-67
2021/03/12 06:21:51;;;;;;;36.38;34.30;;;27.90;99.90;;;;;;5094290;28;20029;-67
2021/03/12 06:24:36;;;;;;;32.42;30.40;;;28.10;99.90;;;;;;5094061;28;20065;-67
2021/03/12 06:27:03;;;;;;;29.30;27.45;;;28.10;99.90;;;;;;5094695;28;20028;-67
2021/03/12 06:29:35;;;;;;;28.77;27.02;;;27.90;99.90;;;;;;5093870;28;20514;-67
2021/03/12 06:32:05;;;;;;;27.17;25.58;;;27.90;99.90;;;;;;5094102;28;20016;-67
2021/03/12 06:34:33;;;;;;;28.60;26.50;;;27.70;99.90;;;;;;5093867;28;20024;-68
2021/03/12 06:37:21;;;;;;;29.42;27.65;;;27.40;99.90;;;;;;5093562;28;20024;-67
2021/03/12 06:39:48;;;;;;;31.40;29.38;;;27.20;99.90;;;;;;5093596;28;20044;-67
2021/03/12 06:42:15;;;;;;;36.10;33.63;;;27.10;99.90;;;;;;5093769;28;20507;-67
2021/03/12 06:44:43;;;;;;;34.72;32.38;;;27.60;99.90;;;;;;5093825;28;20024;-67
2021/03/12 06:47:10;;;;;;;34.00;31.75;;;28.30;99.90;;;;;;5093870;28;20499;-67
2021/03/12 06:49:59;;;;;;;32.08;30.02;;;28.60;99.90;;;;;;5093702;28;20031;-68
2021/03/12 06:52:37;;;;;;;30.58;28.50;;;29.10;99.90;;;;;;5094090;28;20073;-67
2021/03/12 06:55:06;;;;;;;29.25;27.33;;;28.00;99.90;;;;;;5093545;28;20093;-67
2021/03/12 06:57:33;;;;;;;31.45;29.40;;;27.10;99.90;;;;;;5093370;28;20353;-68
2021/03/12 07:00:04;;;;;;;34.83;32.70;;;26.50;99.90;;;;;;5092170;28;20383;-67
2021/03/12 07:02:37;;;;;;;36.72;34.17;;;26.00;99.90;;;;;;5093483;28;20035;-68
2021/03/12 07:05:05;;;;;;;37.88;35.55;;;25.60;99.90;;;;;;5093497;28;20395;-68
2021/03/12 07:07:38;;;;;;;36.72;34.53;;;25.40;99.90;;;;;;5093988;28;20035;-68
2021/03/12 07:10:10;;;;;;;37.90;35.30;;;25.20;99.90;;;;;;5093340;28;20059;-68
2021/03/12 07:12:51;;;;;;;40.13;37.65;;;25.10;99.90;;;;;;5093486;28;20031;-67
2021/03/12 07:15:21;;;;;;;39.55;37.33;;;25.10;99.90;;;;;;5093876;28;20028;-68
2021/03/12 07:17:49;;;;;;;40.28;38.17;;;25.10;99.90;;;;;;5092473;28;20020;-68
2021/03/12 07:20:20;;;;;;;40.00;37.60;;;24.90;99.90;;;;;;5093556;28;20077;-67
2021/03/12 07:22:49;;;;;;;41.17;38.63;;;25.00;99.90;;;;;;5093151;28;20032;-67
2021/03/12 07:25:22;;;;;;;46.33;43.10;;;25.10;99.90;;;;;;5093563;28;20051;-67
2021/03/12 07:27:51;;;;;;;50.47;47.15;;;25.10;99.90;;;;;;5093223;28;20416;-67
2021/03/12 07:30:19;;;;;;;49.03;45.87;;;25.10;99.90;;;;;;5093057;28;20021;-67
2021/03/12 07:32:52;;;;;;;56.38;52.58;;;25.10;99.90;;;;;;5093081;28;20046;-67
2021/03/12 07:35:22;;;;;;;56.58;52.85;;;25.00;99.90;;;;;;5093207;28;20047;-67
2021/03/12 07:37:52;;;;;;;55.92;52.42;;;25.00;99.90;;;;;;5093358;28;20487;-67
2021/03/12 07:40:21;;;;;;;51.70;48.35;;;24.80;99.90;;;;;;5091622;28;20063;-67
2021/03/12 07:42:49;;;;;;;54.53;50.83;;;24.90;99.90;;;;;;5093283;28;20028;-67
2021/03/12 07:45:21;;;;;;;52.63;49.05;;;24.80;99.90;;;;;;5091682;28;20028;-67
2021/03/12 07:47:49;;;;;;;58.60;54.42;;;24.70;99.90;;;;;;5093274;28;20430;-67
2021/03/12 07:50:32;;;;;;;58.35;54.10;;;24.50;99.90;;;;;;5092936;28;20032;-66
2021/03/12 07:53:02;;;;;;;60.42;56.72;;;24.50;99.90;;;;;;5092886;28;20028;-66
2021/03/12 07:55:38;;;;;;;63.42;59.10;;;24.40;99.90;;;;;;5092857;28;20052;-67
2021/03/12 07:58:10;;;;;;;64.15;59.50;;;24.40;99.90;;;;;;5092944;28;20068;-66
2021/03/12 08:00:55;;;;;;;63.13;58.65;;;24.40;99.90;;;;;;5092925;28;20039;-67
2021/03/12 08:03:30;;;;;;;64.28;59.65;;;24.40;99.90;;;;;;5092939;28;20035;-67
2021/03/12 08:05:58;;;;;;;70.13;64.97;;;24.30;99.90;;;;;;5092573;28;20020;-67
2021/03/12 08:08:51;;;;;;;65.10;60.55;;;24.20;99.90;;;;;;5092611;28;20453;-66
2021/03/12 08:11:25;;;;;;;60.55;55.85;;;24.30;99.90;;;;;;5089821;28;20484;-66
2021/03/12 08:14:16;;;;;;;59.80;55.42;;;24.20;99.90;;;;;;5092661;28;20089;-66
2021/03/12 08:17:00;;;;;;;57.70;52.72;;;24.10;99.90;;;;;;5095969;28;20025;-67
2021/03/12 08:19:35;;;;;;;58.58;54.38;;;24.10;99.90;;;;;;5096509;28;20480;-66
2021/03/12 08:22:23;;;;;;;64.38;60.00;;;24.10;99.90;;;;;;5096519;28;20024;-68
2021/03/12 08:24:52;;;;;;;62.75;58.47;;;24.10;99.90;;;;;;5095110;28;20115;-67
2021/03/12 08:27:42;;;;;;;61.78;57.28;;;24.10;99.90;;;;;;5096388;28;20544;-67
2021/03/12 08:30:35;;;;;;;63.08;58.67;;;24.00;99.90;;;;;;5096152;28;20020;-67
2021/03/12 08:33:03;;;;;;;66.43;61.60;;;24.00;99.90;;;;;;5096138;28;20028;-68
2021/03/12 08:35:34;;;;;;;64.05;59.97;;;23.90;99.90;;;;;;5096252;28;20122;-67
2021/03/12 08:38:19;;;;;;;;;;;23.90;99.90;;;;;;5097227;28;20025;-67
2021/03/12 08:40:57;;;;;;;62.33;58.35;;;23.90;99.90;;;;;;5096079;28;19923;-67
2021/03/12 08:43:27;;;;;;;63.47;59.13;;;23.80;99.90;;;;;;5096469;28;20060;-68
2021/03/12 08:46:00;;;;;;;62.08;57.85;;;23.80;99.90;;;;;;5096034;28;20379;-68
2021/03/12 08:48:30;;;;;;;63.25;59.05;;;23.80;99.90;;;;;;5094658;28;20051;-68
2021/03/12 08:51:04;;;;;;;64.57;60.10;;;23.80;99.90;;;;;;5096056;28;20059;-67
2021/03/12 08:53:47;;;;;;;65.75;61.22;;;23.70;99.90;;;;;;5096024;28;20027;-67
2021/03/12 08:56:40;;;;;;;64.53;60.35;;;23.80;99.90;;;;;;5095950;28;20024;-67
2021/03/12 08:59:08;;;;;;;68.25;64.05;;;23.70;99.90;;;;;;5095777;28;20077;-68
2021/03/12 09:01:36;;;;;;;71.25;66.50;;;23.70;99.90;;;;;;5096419;28;20031;-67
2021/03/12 09:04:07;;;;;;;68.60;64.28;;;23.70;99.90;;;;;;5095696;28;20024;-67
2021/03/12 09:06:39;;;;;;;61.63;57.33;;;23.80;99.90;;;;;;5095828;28;20029;-67
2021/03/12 09:09:08;;;;;;;67.93;63.45;;;23.80;99.90;;;;;;5095560;28;20442;-67
2021/03/12 09:11:36;;;;;;;65.00;60.53;;;23.70;99.90;;;;;;5095647;28;20027;-67
2021/03/12 09:14:05;;;;;;;68.03;63.25;;;23.70;99.90;;;;;;5095606;28;20024;-68
2021/03/12 09:16:37;;;;;;;68.32;63.95;;;23.70;99.90;;;;;;5095528;28;20031;-67
2021/03/12 09:19:05;;;;;;;67.70;63.08;;;23.70;99.90;;;;;;5095470;28;20035;-67
2021/03/12 09:21:33;;;;;;;68.15;63.40;;;23.70;99.90;;;;;;5095321;28;20403;-66
2021/03/12 09:24:04;;;;;;;68.90;64.05;;;23.70;99.90;;;;;;5095169;28;20046;-67
2021/03/12 09:26:37;;;;;;;70.18;65.35;;;23.60;99.90;;;;;;5095579;28;20031;-67
2021/03/12 09:29:08;;;;;;;69.22;64.18;;;23.50;99.90;;;;;;5093619;28;20035;-67
2021/03/12 09:31:41;;;;;;;69.88;65.13;;;23.30;99.90;;;;;;5095126;28;20570;-66
2021/03/12 09:34:13;;;;;;;71.30;66.63;;;23.30;99.90;;;;;;5095206;28;20016;-66
2021/03/12 09:36:49;;;;;;;78.65;73.20;;;23.30;99.90;;;;;;5095053;28;20039;-66
2021/03/12 09:39:22;;;;;;;79.18;73.95;;;23.20;99.90;;;;;;5095118;28;20055;-66
2021/03/12 09:41:59;;;;;;;78.45;73.15;;;23.10;99.90;;;;;;5094881;28;20102;-66
2021/03/12 09:44:28;;;;;;;84.38;78.65;;;23.00;99.90;;;;;;5094897;28;20610;-67
2021/03/12 09:47:00;;;;;;;84.70;79.18;;;22.90;99.90;;;;;;5094709;28;20024;-67
2021/03/12 09:49:36;;;;;;;84.75;79.55;;;22.80;99.90;;;;;;5094789;28;20357;-66
2021/03/12 09:52:10;;;;;;;85.47;79.82;;;22.80;99.90;;;;;;5094802;28;20016;-66
2021/03/12 09:54:39;;;;;;;89.00;83.47;;;22.80;99.90;;;;;;5095085;28;20092;-66
2021/03/12 09:57:08;;;;;;;89.10;83.10;;;22.80;99.90;;;;;;5094662;28;20495;-65
2021/03/12 09:59:38;;;;;;;88.72;82.95;;;22.70;99.90;;;;;;5094524;28;20024;-66
2021/03/12 10:02:11;;;;;;;84.00;78.10;;;22.70;99.90;;;;;;5094513;28;20020;-66
2021/03/12 10:04:43;;;;;;;82.90;77.05;;;22.70;99.90;;;;;;5093280;28;20081;-66
2021/03/12 10:07:12;;;;;;;85.28;79.70;;;22.70;99.90;;;;;;5094715;28;20059;-67
2021/03/12 10:09:42;;;;;;;83.50;78.07;;;22.60;99.90;;;;;;5094172;28;20031;-66
2021/03/12 10:12:24;;;;;;;88.72;82.30;;;22.60;99.90;;;;;;5093026;28;20028;-66
2021/03/12 10:15:07;;;;;;;89.43;83.22;;;22.60;99.90;;;;;;5093051;28;20031;-66
2021/03/12 10:17:38;;;;;;;87.72;81.60;;;22.60;99.90;;;;;;5094574;28;20032;-67
2021/03/12 10:20:09;;;;;;;88.93;82.43;;;22.60;99.90;;;;;;5094102;28;20041;-67
2021/03/12 10:22:39;;;;;;;86.07;79.88;;;22.50;99.90;;;;;;5094050;28;20034;-66
2021/03/12 10:25:15;;;;;;;83.60;77.57;;;22.50;99.90;;;;;;5094080;28;20377;-66
2021/03/12 10:27:45;;;;;;;84.40;78.40;;;22.50;99.90;;;;;;5093217;28;20031;-67
2021/03/12 10:30:20;;;;;;;87.15;80.75;;;22.60;99.90;;;;;;5093840;28;20028;-67
2021/03/12 10:32:58;;;;;;;89.68;83.20;;;22.50;99.90;;;;;;5094613;28;20047;-66
2021/03/12 10:35:29;;;;;;;88.05;81.68;;;22.50;99.90;;;;;;5093847;28;20020;-67
2021/03/12 10:38:13;;;;;;;86.43;80.53;;;22.60;99.90;;;;;;5093799;28;20024;-66
2021/03/12 10:40:42;;;;;;;82.05;76.20;;;22.60;99.90;;;;;;5093915;28;20047;-66
2021/03/12 10:43:23;;;;;;;79.75;73.88;;;22.60;99.90;;;;;;5093832;28;20024;-66
2021/03/12 10:45:54;;;;;;;;;;;22.60;99.90;;;;;;5094072;28;20063;-66
2021/03/12 10:48:26;;;;;;;84.72;78.38;;;22.50;99.90;;;;;;5092517;28;19949;-67
2021/03/12 10:51:01;;;;;;;84.88;78.82;;;22.50;99.90;;;;;;5093649;28;20500;-66
2021/03/12 10:53:28;;;;;;;88.00;81.53;;;22.50;99.90;;;;;;5093565;28;20020;-67
2021/03/12 10:56:05;;;;;;;86.45;80.18;;;22.50;99.90;;;;;;5093566;28;20020;-67
2021/03/12 10:58:38;;;;;;;86.65;80.18;;;22.50;99.90;;;;;;5093937;28;20020;-67
2021/03/12 11:01:10;;;;;;;86.65;80.35;;;22.50;99.90;;;;;;5093620;28;20016;-65
2021/03/12 11:03:38;;;;;;;84.75;78.28;;;22.40;99.90;;;;;;5093467;28;20020;-66
2021/03/12 11:06:06;;;;;;;83.20;76.85;;;22.40;99.90;;;;;;5093401;28;20065;-67
2021/03/12 11:08:34;;;;;;;82.13;76.00;;;22.40;99.90;;;;;;5093705;28;20103;-66
2021/03/12 11:11:04;;;;;;;83.70;77.22;;;22.40;99.90;;;;;;5093322;28;20333;-66
2021/03/12 11:13:32;;;;;;;86.13;80.15;;;22.50;99.90;;;;;;5093703;28;20051;-67
2021/03/12 11:15:59;;;;;;;89.25;83.38;;;22.40;99.90;;;;;;5093354;28;20531;-66
2021/03/12 11:18:30;;;;;;;87.10;81.03;;;22.40;99.90;;;;;;5093673;28;20503;-66
2021/03/12 11:21:00;;;;;;;86.75;80.45;;;22.40;99.90;;;;;;5093417;28;20017;-66
2021/03/12 11:23:28;;;;;;;83.70;77.78;;;22.40;99.90;;;;;;5093413;28;20032;-67
2021/03/12 11:25:56;;;;;;;84.15;78.68;;;22.40;99.90;;;;;;5093168;28;20023;-67
2021/03/12 11:28:25;;;;;;;84.25;78.82;;;22.30;99.90;;;;;;5093221;28;20028;-67
2021/03/12 11:30:54;;;;;;;82.38;76.70;;;22.20;99.90;;;;;;5093330;28;20047;-67
2021/03/12 11:33:22;;;;;;;84.68;79.00;;;22.30;99.90;;;;;;5093718;28;20472;-67
2021/03/12 11:35:50;;;;;;;84.88;79.00;;;22.30;99.90;;;;;;5093422;28;20044;-67
2021/03/12 11:38:17;;;;;;;85.28;79.90;;;22.30;99.90;;;;;;5093068;28;20027;-66
2021/03/12 11:40:45;;;;;;;84.07;78.80;;;22.30;99.90;;;;;;5093035;28;20044;-67
2021/03/12 11:43:13;;;;;;;81.53;75.50;;;22.30;99.90;;;;;;5093664;28;20020;-67
2021/03/12 11:45:40;;;;;;;85.18;79.43;;;22.30;99.90;;;;;;5092221;28;20028;-67
2021/03/12 11:48:08;;;;;;;85.18;79.53;;;22.30;99.90;;;;;;5093086;28;20032;-67
2021/03/12 11:50:38;;;;;;;81.97;76.70;;;22.30;99.90;;;;;;5093952;28;20052;-66
2021/03/12 11:53:06;;;;;;;85.07;80.00;;;22.20;99.90;;;;;;5097071;28;20027;-66
2021/03/12 11:55:34;;;;;;;77.95;73.15;;;22.20;99.90;;;;;;5096983;28;20020;-67
2021/03/12 11:58:01;;;;;;;82.22;76.60;;;22.20;99.90;;;;;;5097502;28;20095;-66
2021/03/12 12:00:30;;;;;;;83.70;78.28;;;22.20;99.90;;;;;;5097056;28;20107;-67
2021/03/12 12:02:59;;;;;;;80.68;75.55;;;22.20;99.90;;;;;;5096925;28;20036;-66
2021/03/12 12:05:30;;;;;;;80.00;74.90;;;22.10;99.90;;;;;;5096849;28;20031;-66
2021/03/12 12:07:57;;;;;;;81.13;76.13;;;22.20;99.90;;;;;;5096769;28;20036;-66
2021/03/12 12:10:25;;;;;;;82.03;76.53;;;22.10;99.90;;;;;;5096792;28;20028;-66
2021/03/12 12:12:57;;;;;;;77.72;72.75;;;22.10;99.90;;;;;;5097291;28;20020;-66
2021/03/12 12:15:30;;;;;;;82.22;77.35;;;22.10;99.90;;;;;;5096720;28;20508;-66
2021/03/12 12:18:05;;;;;;;83.00;77.90;;;22.10;99.90;;;;;;5096854;28;20020;-67
2021/03/12 12:20:34;;;;;;;80.53;75.22;;;22.10;99.90;;;;;;5096554;28;20036;-66
2021/03/12 12:23:02;;;;;;;85.18;79.47;;;22.00;99.90;;;;;;5096555;28;20062;-66
2021/03/12 12:25:29;;;;;;;85.57;80.65;;;22.00;99.90;;;;;;5095245;28;20046;-66
2021/03/12 12:27:56;;;;;;;80.90;75.30;;;21.90;99.90;;;;;;5096563;28;20433;-66
2021/03/12 12:30:24;;;;;;;82.82;77.68;;;21.90;99.90;;;;;;5096274;28;20032;-66
2021/03/12 12:32:51;;;;;;;82.95;77.85;;;21.90;99.90;;;;;;5096332;28;20013;-67
2021/03/12 12:35:18;;;;;;;82.32;77.15;;;21.80;99.90;;;;;;5097054;28;20169;-67
2021/03/12 12:37:46;;;;;;;82.07;76.70;;;21.80;99.90;;;;;;5096355;28;20020;-66
2021/03/12 12:40:13;;;;;;;87.80;82.22;;;21.80;99.90;;;;;;5096064;28;20080;-66
2021/03/12 12:42:41;;;;;;;90.32;84.65;;;21.60;99.90;;;;;;5096316;28;20028;-66
2021/03/12 12:45:08;;;;;;;86.45;81.32;;;21.60;99.90;;;;;;5096269;28;20054;-66
2021/03/12 12:47:36;;;;;;;90.88;84.82;;;21.60;99.90;;;;;;5096180;28;20388;-66
2021/03/12 12:50:05;;;;;;;92.53;87.05;;;21.60;99.90;;;;;;5096039;28;20078;-66
2021/03/12 12:52:33;;;;;;;84.05;78.65;;;21.60;99.90;;;;;;5095897;28;20495;-66
2021/03/12 12:55:01;;;;;;;86.65;81.22;;;21.50;99.90;;;;;;5096298;28;20082;-66
2021/03/12 12:57:29;;;;;;;82.93;77.68;;;21.50;99.90;;;;;;5096025;28;20480;-66
2021/03/12 12:59:56;;;;;;;79.53;74.00;;;21.50;99.90;;;;;;5095962;28;20417;-66
2021/03/12 13:02:23;;;;;;;77.97;72.80;;;21.40;99.90;;;;;;5095437;28;20024;-66